OMDBDTTA

Guest
Details From OMDB - Dubai Intl
To DTTA - Carthage
Flight Number -
Tags Generated
Created
Modified
Stats Distance 2,400 nm / 4,445 km
Max Altitude 0 ft / 0 m
Waypoints 9
Social Downloads 2
Likes 0
Share VATSIM

Download

Looking for another format? Having issues loading an existing format? Contact us
Advertisement - Login to hide

Notes

Generated

Route

OMDB MIDSI SOROR BUSRA ASPIS PLH DIRKA TUC DTTA

ID Type Via Altitude Latitude Longitude Leg Dist Tot Dist Heading (true) Name
O OMDB APT - 0 ft / 0 m 25.26213˚ 55.34757˚ - 0 nm - -
MIDSI FIX - 0 ft / 0 m 26.69500˚ 51.91167˚ 204 nm 204 nm 296° / 294° -
SOROR FIX - 0 ft / 0 m 28.57139˚ 47.65889˚ 252 nm 457 nm 297° / 295° -
BUSRA FIX - 0 ft / 0 m 32.33333˚ 36.61667˚ 614 nm 1071 nm 294° / 289° -
ASPIS FIX - 0 ft / 0 m 33.48063˚ 32.22794˚ 231 nm 1303 nm 288° / 286° -
PLH VOR - 0 ft / 0 m 35.22764˚ 23.68084˚ 436 nm 1739 nm 286° / 281° PALEOCHORA VOR-DME
DIRKA FIX - 0 ft / 0 m 36.50000˚ 14.31000˚ 462 nm 2201 nm 282° / 277° -
TUC VOR - 0 ft / 0 m 36.85158˚ 10.23033˚ 197 nm 2399 nm 277° / 275° TUNIS VOR-DME
O DTTA APT - 0 ft / 0 m 36.85426˚ 10.21769˚ 0 nm 2400 nm 285° / 285° -

Altitude Profile

Advertisement - Login to hide

Weather


0- 5 10 15 20 25 30 35+ Temperature / ° C

Clouds and Precipitation
Forecast for 2017-12-14 06:00 UTC. Updated 2 hours ago

Ground ~20,000 ft ~40,000 ft Winds

OMDB

Details ICAO OMDB (DXB)
Name DUBAI INTL
Region United Arab Emirates
Timezone Asia/Dubai (UTC+4.0)
Stats Elevation 62 ft / 19 m (AMSL)
Location 25.254912° 55.364260°
Runways 2
Magnetic Variation 2.047° E

METAR

OMDB 140200Z 07005KT 040V130 CAVOK 18/08 Q1017 NOSIG

Decode

TAF

TAF OMDB 132301Z 1400/1506 08008KT 8000 NSC BECMG 1404/1406 17010KT BECMG 1409/1411 35013KT BECMG 1414/1416 15008KT

Decode

Departure Runways

ID Width Length Bearing (true) Bearing (mag) Surface Threshold Offset Overrun Length
12L 197 ft / 60 m 13,124 ft / 4,000 m 121.49° 119.44° Asphalt 1,312 ft / 400 m 395 ft / 120 m
12R 151 ft / 46 m 13,139 ft / 4,005 m 121.48° 119.43° Asphalt 394 ft / 120 m 197 ft / 60 m
30L 151 ft / 46 m 13,139 ft / 4,005 m 301.50° 299.45° Asphalt 2,953 ft / 900 m 197 ft / 60 m
30R 197 ft / 60 m 13,124 ft / 4,000 m 301.51° 299.46° Asphalt 0 ft / 0 m 395 ft / 120 m

DTTA

Details ICAO DTTA (TUN)
Name CARTHAGE
Region Tunisia
Timezone Africa/Tunis (UTC+1.0)
Stats Elevation 22 ft / 7 m (AMSL)
Location 36.851267° 10.230027°
Runways 2
Magnetic Variation 2.403° E

METAR

DTTA 140230Z 23008KT 9999 SCT023 11/07 Q1024 NOSIG

Decode

TAF

TAF DTTA 132300Z 1400/1424 22012KT 9999 SCT023= TAF DTTJ 132300Z 1400/1424 18010KT CAVOK BECMG 1418/1420 23015KT

Decode

Destination Runways

ID Width Length Bearing (true) Bearing (mag) Surface Threshold Offset Overrun Length
01 148 ft / 45 m 10,502 ft / 3,201 m 12.29° 9.89° Asphalt 0 ft / 0 m 197 ft / 60 m
11 148 ft / 45 m 9,345 ft / 2,848 m 112.55° 110.15° Asphalt 0 ft / 0 m 643 ft / 196 m
19 148 ft / 45 m 10,502 ft / 3,201 m 192.29° 189.89° Asphalt 0 ft / 0 m 197 ft / 60 m
29 148 ft / 45 m 9,345 ft / 2,848 m 292.57° 290.17° Asphalt 657 ft / 200 m 197 ft / 60 m

Approach Navaids

Runway Type Ident Frequency Range Bearing (true) Bearing (mag) Slope Elevation
01 Glidescope TBL 111.10 MHz 10 nm / 19 km 10.00° 7.60° 3.00° 22 ft / 7 m (AMSL)
01 DME TBL 111.10 MHz 18 nm / 33 km - - - 22 ft / 7 m (AMSL)
19 Localiser TSI 110.30 MHz 18 nm / 33 km 192.29° 189.89° - 13 ft / 4 m (AMSL)
19 Glidescope TSI 110.30 MHz 10 nm / 19 km 192.29° 189.89° 3.00° 22 ft / 7 m (AMSL)
29 Localiser TKE 108.50 MHz 18 nm / 33 km 292.54° 290.14° - 22 ft / 7 m (AMSL)
29 Glidescope TKE 108.50 MHz 10 nm / 19 km 292.56° 290.15° 3.00° 22 ft / 7 m (AMSL)
29 DME TKE 108.50 MHz 18 nm / 33 km - - - 22 ft / 7 m (AMSL)

Popular Alternatives